Time;durP1;ratioP1;P1;durP2;ratioP2;P2;SDS_P1;SDS_P2;PMS_P1;PMS_P2;Temp;Humidity;BMP_temperature;BMP_pressure;BME280_temperature;BME280_humidity;BME280_pressure;Samples;Min_cycle;Max_cycle;Signal;HPM_P1;HPM_P2
2022/08/28 00:01:08;;;;;;;32.00;11.00;;;;;;;19.48;46.75;98559.22;105801;1276;95237;-66
2022/08/28 00:03:37;;;;;;;27.60;12.10;;;;;;;19.44;46.91;98558.79;105935;1276;108035;-67
2022/08/28 00:06:05;;;;;;;33.10;12.50;;;;;;;19.42;47.03;98566.86;105936;1276;99011;-68
2022/08/28 00:08:39;;;;;;;29.70;11.90;;;;;;;19.37;47.08;98564.67;106009;1276;97868;-69
2022/08/28 00:11:07;;;;;;;26.00;11.90;;;;;;;19.33;47.16;98561.67;106051;1276;112182;-67
2022/08/28 00:13:36;;;;;;;24.20;11.40;;;;;;;19.31;47.26;98561.28;106080;1276;97999;-68
2022/08/28 00:16:11;;;;;;;26.80;12.20;;;;;;;19.26;47.37;98556.23;105975;1276;108349;-69
2022/08/28 00:18:43;;;;;;;28.40;11.90;;;;;;;19.23;47.43;98565.21;105977;1276;97955;-69
2022/08/28 00:21:16;;;;;;;29.00;12.00;;;;;;;19.22;47.59;98566.30;105965;1276;97994;-68
2022/08/28 00:23:47;;;;;;;28.80;12.90;;;;;;;19.21;47.59;98561.69;105946;1278;112102;-68
2022/08/28 00:29:05;;;;;;;33.70;11.90;;;;;;;19.18;47.72;98556.65;106045;1276;108398;-68
2022/08/28 00:31:39;;;;;;;27.60;12.00;;;;;;;19.15;47.73;98558.80;106021;1276;97836;-68
2022/08/28 00:34:11;;;;;;;27.10;11.30;;;;;;;19.12;47.90;98555.67;106099;1276;97859;-66
2022/08/28 00:36:40;;;;;;;31.60;12.80;;;;;;;19.12;47.91;98556.06;106029;1277;111975;-67
2022/08/28 00:39:08;;;;;;;28.90;11.90;;;;;;;19.10;47.86;98557.80;105992;1276;96446;-66
2022/08/28 00:41:42;;;;;;;28.10;11.00;;;;;;;19.06;47.92;98564.57;106021;1276;109853;-69
2022/08/28 00:44:22;;;;;;;34.80;11.90;;;;;;;19.06;48.12;98573.19;105972;1276;98029;-67
2022/08/28 00:46:55;;;;;;;26.10;11.70;;;;;;;19.08;48.38;98565.77;105856;1276;97957;-67
2022/08/28 00:49:30;;;;;;;24.90;10.30;;;;;;;19.07;48.04;98561.40;105900;1276;111264;-70
2022/08/28 00:52:07;;;;;;;31.30;11.20;;;;;;;18.95;47.85;98556.91;106020;1276;97884;-70
2022/08/28 00:54:52;;;;;;;30.50;12.00;;;;;;;18.88;48.30;98562.63;106085;1276;107787;-67
2022/08/28 00:57:40;;;;;;;29.10;12.30;;;;;;;18.85;48.54;98566.31;106051;1276;97955;-68
2022/08/28 01:00:16;;;;;;;28.60;12.90;;;;;;;18.87;48.64;98565.55;105970;1276;96591;-70
2022/08/28 01:02:48;;;;;;;27.50;12.00;;;;;;;18.88;48.65;98564.79;105865;1276;111816;-67
2022/08/28 01:05:20;;;;;;;31.50;11.80;;;;;;;18.87;48.83;98572.20;105960;1276;97872;-66
2022/08/28 01:07:52;;;;;;;27.00;13.20;;;;;;;18.84;48.87;98567.73;105938;1276;107011;-68
2022/08/28 01:10:26;;;;;;;32.70;13.60;;;;;;;18.78;48.67;98570.36;105935;1276;96293;-67
2022/08/28 01:12:59;;;;;;;32.40;11.40;;;;;;;18.74;48.92;98567.09;105983;1276;96363;-67
2022/08/28 01:15:34;;;;;;;26.80;12.30;;;;;;;18.74;49.02;98565.61;105902;1276;111256;-67
2022/08/28 01:18:08;;;;;;;29.20;11.60;;;;;;;18.74;49.18;98558.72;105940;1276;97883;-67
2022/08/28 01:21:10;;;;;;;29.60;11.80;;;;;;;18.73;49.25;98557.30;105979;1276;107920;-66
2022/08/28 01:23:56;;;;;;;29.30;11.40;;;;;;;18.71;49.15;98559.32;105887;1276;97885;-68
2022/08/28 01:26:29;;;;;;;30.30;12.00;;;;;;;18.69;49.23;98563.85;105992;1276;97970;-66
2022/08/28 01:28:59;;;;;;;29.10;11.10;;;;;;;18.69;49.39;98564.34;106003;1276;112443;-68
2022/08/28 01:31:32;;;;;;;29.10;11.70;;;;;;;18.71;49.37;98565.17;106030;1276;97918;-64
2022/08/28 01:34:04;;;;;;;30.30;12.00;;;;;;;18.73;49.53;98566.42;105911;1276;108350;-68
2022/08/28 01:36:36;;;;;;;27.20;11.20;;;;;;;18.76;49.44;98567.73;105937;1276;97980;-67
2022/08/28 01:39:19;;;;;;;32.60;12.00;;;;;;;18.73;49.18;98567.48;105980;1276;97900;-67
2022/08/28 01:41:53;;;;;;;28.00;11.60;;;;;;;18.62;49.48;98561.56;105958;1276;113785;-67
2022/08/28 01:44:27;;;;;;;33.70;14.90;;;;;;;18.59;49.54;98561.37;105938;1276;98009;-67
2022/08/28 01:47:00;;;;;;;33.50;13.30;;;;;;;18.60;49.83;98556.75;105887;1276;108380;-68
2022/08/28 01:49:30;;;;;;;30.30;13.50;;;;;;;18.64;49.90;98558.17;105993;1276;95213;-68
2022/08/28 01:51:58;;;;;;;30.70;11.50;;;;;;;18.67;49.92;98554.23;105942;1276;97979;-68
2022/08/28 01:54:33;;;;;;;33.40;12.70;;;;;;;18.69;50.13;98552.90;105976;1276;111192;-69
2022/08/28 01:57:06;;;;;;;33.10;11.70;;;;;;;18.68;50.11;98552.65;105993;1276;97871;-68
2022/08/28 01:59:34;;;;;;;27.80;12.20;;;;;;;18.65;49.97;98552.45;105964;1276;106748;-69
2022/08/28 02:02:05;;;;;;;29.20;12.20;;;;;;;18.59;49.96;98548.67;105928;1276;98087;-64
2022/08/28 02:04:33;;;;;;;29.40;11.80;;;;;;;18.55;50.24;98551.39;105895;1276;97847;-68
2022/08/28 02:07:04;;;;;;;26.70;11.80;;;;;;;18.52;50.31;98552.29;105960;1276;112125;-67
2022/08/28 02:09:35;;;;;;;27.90;11.20;;;;;;;18.52;50.43;98551.95;106001;1276;97930;-68
2022/08/28 02:12:05;;;;;;;33.00;12.40;;;;;;;18.53;50.53;98554.04;105955;1276;107704;-69
2022/08/28 02:14:37;;;;;;;25.60;11.00;;;;;;;18.56;50.77;98555.95;105940;1276;97756;-68
2022/08/28 02:17:06;;;;;;;28.90;13.00;;;;;;;18.58;50.75;98557.49;105947;1276;97877;-66
2022/08/28 02:19:35;;;;;;;28.50;11.50;;;;;;;18.57;50.76;98551.20;105985;1276;112083;-66
2022/08/28 02:22:08;;;;;;;25.90;11.40;;;;;;;18.54;50.67;98550.44;105966;1276;97887;-66
2022/08/28 02:24:39;;;;;;;28.70;11.90;;;;;;;18.53;50.84;98549.73;105951;1276;107774;-67
2022/08/28 02:27:11;;;;;;;25.00;11.20;;;;;;;18.54;51.00;98547.35;105942;1276;98092;-67
2022/08/28 02:29:39;;;;;;;25.70;11.10;;;;;;;18.55;50.93;98547.35;105988;1276;97878;-67
2022/08/28 02:32:07;;;;;;;26.90;11.20;;;;;;;18.54;50.99;98545.14;105942;1276;111981;-68
2022/08/28 02:34:39;;;;;;;26.00;11.10;;;;;;;18.49;50.70;98548.11;105972;1276;96673;-67
2022/08/28 02:37:12;;;;;;;27.20;11.20;;;;;;;18.41;50.85;98552.63;105962;1276;108361;-67
2022/08/28 02:39:40;;;;;;;27.90;12.00;;;;;;;18.37;51.48;98549.14;105957;1276;97976;-66
2022/08/28 02:42:10;;;;;;;31.20;12.00;;;;;;;18.37;51.42;98553.45;105950;1276;96917;-67
2022/08/28 02:44:41;;;;;;;25.30;11.50;;;;;;;18.37;51.33;98556.55;106037;1276;111651;-66
2022/08/28 02:47:09;;;;;;;24.80;10.40;;;;;;;18.35;51.44;98553.02;105964;1276;97773;-67
2022/08/28 02:49:44;;;;;;;23.80;10.90;;;;;;;18.35;51.65;98544.37;105926;1276;108554;-68
2022/08/28 02:52:12;;;;;;;31.10;11.20;;;;;;;18.37;51.42;98547.90;105866;1277;97997;-67
2022/08/28 02:54:40;;;;;;;28.40;11.80;;;;;;;18.35;51.42;98548.14;105976;1276;97855;-68
2022/08/28 02:57:08;;;;;;;27.80;12.40;;;;;;;18.30;51.31;98547.06;105957;1276;112078;-67
2022/08/28 02:59:38;;;;;;;28.60;11.30;;;;;;;18.24;51.34;98546.20;105935;1276;95443;-67
2022/08/28 03:02:06;;;;;;;25.40;10.60;;;;;;;18.16;51.55;98542.23;105910;1278;108241;-69
2022/08/28 03:04:37;;;;;;;27.00;10.40;;;;;;;18.09;51.66;98542.63;106036;1277;97889;-65
2022/08/28 03:07:10;;;;;;;27.20;10.30;;;;;;;18.03;52.13;98535.27;105983;1276;98674;-66
2022/08/28 03:09:43;;;;;;;22.00;9.90;;;;;;;17.92;52.42;98533.52;105946;1276;111410;-65
2022/08/28 03:12:15;;;;;;;24.70;10.30;;;;;;;17.81;52.79;98544.11;106001;1274;97609;-67
2022/08/28 03:14:43;;;;;;;29.20;10.50;;;;;;;17.73;52.77;98552.86;105969;1276;107756;-66
2022/08/28 03:17:11;;;;;;;24.30;10.20;;;;;;;17.72;53.02;98560.14;105956;1276;95307;-66
2022/08/28 03:19:43;;;;;;;26.90;10.40;;;;;;;17.74;53.33;98562.27;105996;1276;97885;-67
2022/08/28 03:22:13;;;;;;;23.60;10.60;;;;;;;17.79;53.42;98568.52;105965;1276;112164;-67
2022/08/28 03:24:45;;;;;;;23.20;10.10;;;;;;;17.85;53.62;98564.83;105979;1276;95675;-66
2022/08/28 03:27:14;;;;;;;22.50;9.60;;;;;;;17.92;53.36;98554.55;105927;1276;108544;-67
2022/08/28 03:29:44;;;;;;;28.10;10.50;;;;;;;17.97;53.88;98553.93;105973;1276;97972;-66
2022/08/28 03:32:14;;;;;;;21.40;9.80;;;;;;;18.03;53.47;98553.00;106059;1275;97888;-66
2022/08/28 03:34:43;;;;;;;22.40;9.40;;;;;;;18.02;53.46;98545.06;106075;1277;111068;-66
2022/08/28 03:37:13;;;;;;;21.30;9.10;;;;;;;17.99;53.62;98539.06;106009;1276;95486;-66
2022/08/28 03:39:46;;;;;;;27.90;10.10;;;;;;;17.96;54.32;98531.34;105880;1277;108514;-67
2022/08/28 03:42:14;;;;;;;22.20;9.30;;;;;;;17.84;54.28;98527.92;105936;1276;97879;-68
2022/08/28 03:44:46;;;;;;;25.30;10.10;;;;;;;17.77;54.52;98534.33;105996;1277;98043;-66
2022/08/28 03:47:17;;;;;;;24.60;10.30;;;;;;;17.71;54.21;98538.55;105969;1276;112082;-68
2022/08/28 03:49:57;;;;;;;26.70;9.60;;;;;;;17.68;54.69;98545.29;106042;1276;95345;-65
2022/08/28 03:52:25;;;;;;;23.60;10.00;;;;;;;17.72;54.92;98556.88;102547;1277;4591363;-65
2022/08/28 03:54:55;;;;;;;24.20;9.50;;;;;;;17.78;55.18;98562.02;105982;1276;95354;-67
2022/08/28 03:57:25;;;;;;;24.00;8.90;;;;;;;17.83;55.11;98563.61;105958;1277;111964;-65
2022/08/28 03:59:56;;;;;;;22.20;9.90;;;;;;;17.87;55.26;98563.27;105976;1276;97883;-66
2022/08/28 04:02:29;;;;;;;26.70;10.10;;;;;;;17.93;55.08;98559.27;105958;1276;109170;-65
2022/08/28 04:04:56;;;;;;;22.50;10.00;;;;;;;17.97;55.19;98564.22;106033;1276;97913;-66
2022/08/28 04:07:27;;;;;;;21.70;9.50;;;;;;;18.02;55.22;98557.95;105995;1276;97925;-66
2022/08/28 04:09:55;;;;;;;26.80;10.00;;;;;;;18.05;55.15;98557.44;105969;1277;111996;-67
2022/08/28 04:12:26;;;;;;;26.30;9.50;;;;;;;18.07;55.21;98562.08;106022;1276;95288;-66
2022/08/28 04:15:09;;;;;;;24.70;10.00;;;;;;;18.12;55.18;98569.23;105969;1277;108342;-64
2022/08/28 04:17:40;;;;;;;25.10;10.60;;;;;;;18.17;55.48;98574.95;105942;1276;95361;-66
2022/08/28 04:20:11;;;;;;;25.00;10.90;;;;;;;18.20;55.38;98573.30;106055;1276;97948;-69
2022/08/28 04:22:39;;;;;;;34.10;11.50;;;;;;;18.25;55.44;98581.23;106037;1274;111902;-68
2022/08/28 04:25:15;;;;;;;25.80;11.00;;;;;;;18.30;55.73;98584.41;106015;1275;97969;-70
2022/08/28 04:27:43;;;;;;;23.50;10.70;;;;;;;18.33;55.68;98581.64;105950;1276;106569;-65
2022/08/28 04:30:17;;;;;;;24.10;11.30;;;;;;;18.34;55.61;98581.64;105958;1276;97992;-66
2022/08/28 04:32:45;;;;;;;26.70;11.90;;;;;;;18.36;55.66;98584.86;106009;1276;97832;-66
2022/08/28 04:35:17;;;;;;;25.10;11.10;;;;;;;18.38;55.54;98582.80;105953;1276;112024;-65
2022/08/28 04:37:45;;;;;;;21.90;11.20;;;;;;;18.40;55.72;98579.45;105991;1276;97886;-65
2022/08/28 04:40:14;;;;;;;24.20;11.30;;;;;;;18.43;55.67;98582.21;105956;1277;108448;-66
2022/08/28 04:42:43;;;;;;;23.40;12.00;;;;;;;18.49;55.82;98590.94;105958;1275;97974;-67
2022/08/28 04:45:15;;;;;;;25.60;12.10;;;;;;;18.53;56.01;98597.25;105996;1274;97973;-65
2022/08/28 04:47:45;;;;;;;27.00;12.30;;;;;;;18.57;55.98;98593.96;105952;1276;112022;-66
2022/08/28 04:50:13;;;;;;;26.50;11.50;;;;;;;18.59;56.10;98593.28;105990;1276;97884;-68
2022/08/28 04:52:43;;;;;;;25.80;11.30;;;;;;;18.63;56.34;98592.89;105935;1277;108764;-67
2022/08/28 04:55:13;;;;;;;26.70;12.00;;;;;;;18.67;56.30;98593.55;105935;1275;98616;-64
2022/08/28 04:57:46;;;;;;;27.50;11.20;;;;;;;18.68;55.92;98592.73;105987;1276;98563;-65
2022/08/28 05:00:16;;;;;;;26.10;11.30;;;;;;;18.66;56.06;98594.73;105931;1276;112025;-66
2022/08/28 05:02:47;;;;;;;24.80;11.50;;;;;;;18.69;56.41;98598.73;105937;1276;97873;-66
2022/08/28 05:05:15;;;;;;;23.80;10.90;;;;;;;18.74;56.50;98596.69;105963;1277;108443;-66
2022/08/28 05:07:48;;;;;;;;;;;;;;;18.81;56.65;98595.98;106010;1276;97951;-66
2022/08/28 05:10:18;;;;;;;24.50;10.20;;;;;;;18.83;56.66;98599.10;106079;1276;95197;-65
2022/08/28 05:12:46;;;;;;;27.40;11.80;;;;;;;18.88;56.62;98600.48;105986;1276;112038;-65
2022/08/28 05:15:17;;;;;;;27.90;12.00;;;;;;;18.94;56.89;98603.46;106002;1277;97978;-66
2022/08/28 05:17:47;;;;;;;24.80;11.00;;;;;;;18.99;56.86;98604.61;105996;1276;108894;-65
2022/08/28 05:20:18;;;;;;;22.60;10.10;;;;;;;19.05;56.91;98601.79;105961;1276;97956;-65
2022/08/28 05:22:48;;;;;;;23.90;11.20;;;;;;;19.11;56.91;98605.70;105964;1276;97875;-64
2022/08/28 05:25:15;;;;;;;24.60;11.10;;;;;;;19.17;57.02;98607.49;105947;1276;111937;-66
2022/08/28 05:27:45;;;;;;;25.60;11.30;;;;;;;19.23;56.90;98610.88;105918;1276;95290;-66
2022/08/28 05:30:14;;;;;;;21.30;10.30;;;;;;;19.28;57.09;98612.46;105948;1276;108377;-67
2022/08/28 05:32:42;;;;;;;27.90;11.20;;;;;;;19.34;57.07;98612.87;105927;1276;95273;-66
2022/08/28 05:35:13;;;;;;;27.30;10.60;;;;;;;19.39;57.22;98616.20;105988;1276;97949;-67
2022/08/28 05:37:44;;;;;;;23.40;10.70;;;;;;;19.45;57.15;98618.54;105993;1274;112171;-66
2022/08/28 05:40:15;;;;;;;28.70;11.70;;;;;;;19.51;57.14;98614.66;105981;1276;95283;-67
2022/08/28 05:42:54;;;;;;;26.90;11.10;;;;;;;19.57;57.32;98615.99;106063;1277;106622;-66
2022/08/28 05:45:26;;;;;;;24.00;11.20;;;;;;;19.63;57.43;98614.36;105944;1278;97011;-66
2022/08/28 05:47:53;;;;;;;23.20;10.60;;;;;;;19.70;57.54;98616.09;106104;1276;95292;-67
2022/08/28 05:50:25;;;;;;;23.70;10.90;;;;;;;19.75;57.49;98619.71;106147;1277;113277;-65
2022/08/28 05:52:56;;;;;;;23.90;10.80;;;;;;;19.80;57.35;98620.66;106015;1276;96177;-71
2022/08/28 05:55:26;;;;;;;24.30;11.70;;;;;;;19.79;57.15;98617.83;106083;1278;108483;-67
2022/08/28 05:58:27;;;;;;;24.40;11.60;;;;;;;19.77;57.45;98619.23;106001;1276;98077;-67
2022/08/28 06:00:45;;;;;;;24.80;11.30;;;;;;;19.78;57.55;98619.80;106091;1276;97984;-67
2022/08/28 06:03:15;;;;;;;24.60;11.10;;;;;;;19.80;57.28;98620.11;106065;1277;112436;-67
2022/08/28 06:05:54;;;;;;;25.50;12.20;;;;;;;19.80;57.38;98622.02;106069;1278;98664;-68
2022/08/28 06:08:22;;;;;;;24.00;12.00;;;;;;;19.77;57.34;98624.22;106028;1278;108318;-67
2022/08/28 06:10:54;;;;;;;27.90;11.30;;;;;;;19.68;57.40;98633.17;106099;1274;95176;-68
2022/08/28 06:13:24;;;;;;;24.90;10.90;;;;;;;19.59;57.58;98632.73;106040;1277;98017;-68
2022/08/28 06:16:00;;;;;;;;;;;;;;;19.57;57.98;98629.95;106004;1277;112019;-68
2022/08/28 06:18:32;;;;;;;26.70;11.20;;;;;;;19.57;58.11;98627.66;106044;1278;97953;-68
2022/08/28 06:21:04;;;;;;;27.00;11.90;;;;;;;19.62;58.33;98627.79;106023;1277;108441;-67
2022/08/28 06:23:36;;;;;;;28.80;11.80;;;;;;;19.69;58.33;98629.86;106003;1277;97852;-67
2022/08/28 06:26:07;;;;;;;24.80;11.30;;;;;;;19.75;58.32;98631.50;106003;1277;97850;-67
2022/08/28 06:28:35;;;;;;;29.30;11.20;;;;;;;19.80;58.35;98631.95;106028;1278;112118;-68
2022/08/28 06:31:03;;;;;;;30.60;12.70;;;;;;;19.83;58.39;98636.41;106053;1278;95276;-68
2022/08/28 06:33:59;;;;;;;28.70;11.80;;;;;;;19.87;58.50;98639.21;105960;1278;106384;-67
2022/08/28 06:36:33;;;;;;;24.60;11.60;;;;;;;19.91;58.35;98642.88;106022;1277;97890;-67
2022/08/28 06:39:06;;;;;;;26.10;11.90;;;;;;;19.92;58.29;98643.19;106055;1277;98002;-69
2022/08/28 06:41:41;;;;;;;24.60;12.10;;;;;;;19.91;58.24;98646.70;105917;1278;111544;-67
2022/08/28 06:44:13;;;;;;;23.70;12.30;;;;;;;19.89;58.41;98648.91;106116;1277;97883;-67
2022/08/28 06:46:43;;;;;;;30.10;14.00;;;;;;;19.89;58.43;98650.92;106110;1278;106512;-67
2022/08/28 06:49:17;;;;;;;29.70;15.40;;;;;;;19.89;58.42;98656.30;105857;1278;97975;-68
2022/08/28 06:51:48;;;;;;;26.40;12.30;;;;;;;19.87;58.69;98654.73;106074;1277;97988;-68
2022/08/28 06:54:20;;;;;;;25.30;12.40;;;;;;;19.86;58.73;98651.36;106054;1277;111964;-68
2022/08/28 06:56:52;;;;;;;25.60;11.70;;;;;;;19.88;58.76;98653.73;106057;1278;98051;-66
2022/08/28 06:59:22;;;;;;;28.80;12.20;;;;;;;19.88;58.82;98651.50;106000;1278;108473;-65
2022/08/28 07:01:51;;;;;;;27.00;11.50;;;;;;;19.88;58.86;98649.20;105982;1278;97851;-67
2022/08/28 07:04:21;;;;;;;25.20;11.60;;;;;;;19.87;58.89;98650.60;105921;1277;95308;-66
2022/08/28 07:06:51;;;;;;;27.30;11.60;;;;;;;19.86;58.90;98650.56;105955;1277;112354;-67
2022/08/28 07:09:27;;;;;;;25.00;11.20;;;;;;;19.85;58.93;98649.92;106052;1277;95369;-68
2022/08/28 07:11:54;;;;;;;25.20;11.60;;;;;;;19.84;58.85;98654.89;105929;1276;110690;-67
2022/08/28 07:14:26;;;;;;;23.90;11.00;;;;;;;19.81;59.00;98657.38;105946;1276;98018;-67
2022/08/28 07:16:55;;;;;;;24.40;11.80;;;;;;;19.80;59.18;98656.20;105891;1276;97698;-68
2022/08/28 07:19:27;;;;;;;27.80;11.60;;;;;;;19.83;59.26;98657.73;106005;1277;112300;-67
2022/08/28 07:21:56;;;;;;;23.20;11.30;;;;;;;19.86;59.24;98658.11;106024;1277;96573;-68
2022/08/28 07:24:29;;;;;;;27.10;11.90;;;;;;;19.88;59.25;98657.48;105987;1278;108375;-68
2022/08/28 07:26:58;;;;;;;24.10;11.20;;;;;;;19.93;59.41;98656.73;105953;1277;96361;-67
2022/08/28 07:29:28;;;;;;;22.70;10.90;;;;;;;20.02;59.37;98653.30;106040;1277;97047;-66
2022/08/28 07:31:59;;;;;;;25.00;10.20;;;;;;;20.15;59.32;98653.10;106070;1277;111472;-68
2022/08/28 07:34:27;;;;;;;29.90;12.40;;;;;;;20.29;59.20;98654.47;105952;1277;96618;-67
2022/08/28 07:37:02;;;;;;;28.80;11.30;;;;;;;20.39;59.28;98657.90;105920;1277;108218;-67
2022/08/28 07:39:35;;;;;;;22.60;11.60;;;;;;;20.50;59.39;98660.75;105942;1277;97973;-67
2022/08/28 07:42:03;;;;;;;28.60;10.90;;;;;;;20.59;59.35;98662.41;106016;1278;97967;-61
2022/08/28 07:44:48;;;;;;;25.50;11.20;;;;;;;20.71;59.47;98661.88;105903;1277;112194;-66
2022/08/28 07:47:18;;;;;;;26.30;11.80;;;;;;;20.88;59.33;98665.77;105922;1277;96501;-67
2022/08/28 07:49:48;;;;;;;24.50;10.80;;;;;;;21.05;59.43;98671.15;105938;1277;108481;-67
2022/08/28 07:52:15;;;;;;;24.90;10.80;;;;;;;21.39;59.50;98673.62;105704;1275;97893;-67
2022/08/28 07:54:43;;;;;;;32.20;11.30;;;;;;;22.24;58.85;98670.89;105946;1277;95236;-67
2022/08/28 07:57:13;;;;;;;22.50;10.40;;;;;;;23.74;58.31;98665.95;105940;1277;112067;-68
2022/08/28 07:59:43;;;;;;;22.50;10.10;;;;;;;24.50;58.66;98660.84;105934;1277;98697;-67
2022/08/28 08:02:17;;;;;;;24.20;10.70;;;;;;;25.55;58.03;98657.57;105841;1277;108325;-67
2022/08/28 08:04:45;;;;;;;25.50;10.50;;;;;;;26.94;57.77;98649.53;105916;1278;97001;-69
2022/08/28 08:07:13;;;;;;;23.30;10.20;;;;;;;28.17;57.51;98651.13;105896;1277;97892;-69
2022/08/28 08:09:47;;;;;;;23.50;9.70;;;;;;;29.01;57.36;98655.55;105831;1277;111083;-68
2022/08/28 08:12:16;;;;;;;23.80;10.70;;;;;;;29.98;56.90;98656.81;105900;1276;97906;-69
2022/08/28 08:14:48;;;;;;;21.90;10.30;;;;;;;30.70;56.51;98653.16;105911;1277;108503;-68
2022/08/28 08:17:20;;;;;;;21.40;9.90;;;;;;;31.34;56.69;98647.70;105908;1277;97972;-67
2022/08/28 08:19:51;;;;;;;23.60;9.40;;;;;;;31.93;56.35;98644.36;105890;1277;97864;-66
2022/08/28 08:22:19;;;;;;;17.90;9.30;;;;;;;32.83;55.63;98641.64;105823;1277;112043;-67
2022/08/28 08:24:49;;;;;;;23.90;9.40;;;;;;;33.48;55.55;98641.69;105884;1277;98369;-67
2022/08/28 08:27:17;;;;;;;25.20;9.10;;;;;;;33.81;55.76;98645.48;105854;1276;108387;-71
2022/08/28 08:29:45;;;;;;;27.60;13.80;;;;;;;33.75;55.17;98650.45;105934;1276;97980;-68
2022/08/28 08:32:14;;;;;;;21.10;9.60;;;;;;;33.58;55.04;98653.90;105919;1277;95336;-70
2022/08/28 08:34:46;;;;;;;22.20;10.00;;;;;;;33.29;54.54;98653.67;105947;1277;112349;-68
2022/08/28 08:37:16;;;;;;;20.50;9.10;;;;;;;32.98;53.92;98657.86;106000;1276;98366;-67
2022/08/28 08:39:44;;;;;;;20.70;9.80;;;;;;;32.61;53.59;98651.84;105945;1277;108840;-67
2022/08/28 08:42:25;;;;;;;25.20;10.10;;;;;;;32.47;53.50;98652.85;105917;1277;97905;-67
2022/08/28 08:44:58;;;;;;;23.20;9.40;;;;;;;32.21;52.94;98649.92;105879;1277;97872;-67
2022/08/28 08:47:41;;;;;;;22.60;10.00;;;;;;;31.93;52.32;98651.96;105777;1278;111442;-66
2022/08/28 08:50:22;;;;;;;18.70;9.20;;;;;;;31.65;52.00;98655.48;105928;1277;96997;-66
2022/08/28 08:53:08;;;;;;;31.80;16.90;;;;;;;31.43;51.84;98656.65;106003;1277;107707;-66
2022/08/28 08:55:54;;;;;;;36.10;19.10;;;;;;;31.34;51.31;98657.42;105901;1276;97947;-68
2022/08/28 08:58:37;;;;;;;21.60;9.70;;;;;;;31.42;50.79;98657.79;106026;1276;97933;-68
2022/08/28 09:01:30;;;;;;;21.40;9.10;;;;;;;31.68;50.51;98656.63;105835;1277;112085;-67
2022/08/28 09:04:16;;;;;;;19.70;9.00;;;;;;;32.14;50.29;98656.08;105905;1276;97960;-66
2022/08/28 09:07:02;;;;;;;21.00;8.40;;;;;;;32.70;49.55;98658.48;105928;1277;108386;-67
2022/08/28 09:09:39;;;;;;;20.70;8.80;;;;;;;32.91;49.32;98665.48;105836;1277;96405;-68
2022/08/28 09:12:24;;;;;;;18.60;8.60;;;;;;;33.24;49.33;98667.92;105818;1276;97979;-67
2022/08/28 09:15:08;;;;;;;21.00;8.20;;;;;;;33.48;49.21;98666.52;105854;1277;111302;-67
2022/08/28 09:17:43;;;;;;;24.00;8.50;;;;;;;33.74;48.76;98672.61;105971;1275;97014;-68
2022/08/28 09:20:19;;;;;;;18.00;8.40;;;;;;;33.86;48.27;98667.33;105880;1276;107808;-68
2022/08/28 09:23:01;;;;;;;17.60;7.60;;;;;;;34.34;47.99;98668.31;105746;1278;97921;-67
2022/08/28 09:25:49;;;;;;;15.40;7.20;;;;;;;34.67;47.65;98666.49;105966;1276;96329;-67
2022/08/28 09:28:30;;;;;;;16.60;8.00;;;;;;;35.08;47.42;98668.41;105966;1276;111182;-68
2022/08/28 09:31:22;;;;;;;19.10;7.90;;;;;;;35.53;47.07;98669.39;106013;1277;98360;-68
2022/08/28 09:33:55;;;;;;;16.80;7.00;;;;;;;35.68;46.49;98671.84;106050;1276;108679;-69
2022/08/28 09:36:36;;;;;;;17.60;9.10;;;;;;;35.94;46.25;98671.94;106134;1277;97998;-68
2022/08/28 09:39:16;;;;;;;28.00;10.30;;;;;;;36.45;45.68;98663.62;106804;1276;97892;-68
2022/08/28 09:45:19;;;;;;;12.10;5.90;;;;;;;37.26;44.76;98660.73;105933;1277;98457;-67
2022/08/28 09:47:51;;;;;;;12.90;5.50;;;;;;;37.69;44.20;98665.16;106065;1276;107866;-67
2022/08/28 09:50:25;;;;;;;;;;;;;;;37.98;44.10;98662.16;106017;1276;97883;-66
2022/08/28 09:52:59;;;;;;;16.30;6.00;;;;;;;38.10;43.58;98659.08;106107;1276;97863;-69
2022/08/28 09:55:58;;;;;;;15.30;6.00;;;;;;;37.88;43.20;98657.48;105963;1276;111458;-68
2022/08/28 09:58:36;;;;;;;15.60;6.60;;;;;;;37.21;42.35;98655.97;106080;1277;95815;-68
2022/08/28 10:01:13;;;;;;;17.20;6.50;;;;;;;36.94;42.10;98652.98;105946;1276;107758;-67
2022/08/28 10:04:27;;;;;;;17.70;6.60;;;;;;;36.75;42.00;98645.80;105971;1276;97915;-68
2022/08/28 10:07:02;;;;;;;20.00;7.00;;;;;;;36.31;41.28;98646.57;105500;1283;99016;-68
2022/08/28 10:09:56;;;;;;;18.00;6.70;;;;;;;35.93;41.07;98638.73;105544;1283;113266;-68
2022/08/28 10:12:52;;;;;;;18.70;8.20;;;;;;;34.94;39.93;98648.12;105788;1276;99499;-67
2022/08/28 10:15:33;;;;;;;22.50;8.20;;;;;;;33.96;39.47;98651.73;105953;1276;108447;-64
2022/08/28 10:18:10;;;;;;;18.80;7.90;;;;;;;33.26;39.51;98655.69;105910;1277;97953;-68
2022/08/28 10:20:43;;;;;;;20.10;8.30;;;;;;;32.71;39.05;98663.67;106003;1276;97946;-67
2022/08/28 10:23:29;;;;;;;18.70;8.20;;;;;;;32.04;38.53;98661.98;106029;1276;111343;-67
2022/08/28 10:26:36;;;;;;;18.10;8.10;;;;;;;31.73;38.71;98662.27;105665;1276;98492;-67
2022/08/28 10:29:44;;;;;;;18.00;8.10;;;;;;;31.30;38.42;98670.12;105999;1277;108653;-67
2022/08/28 10:32:47;;;;;;;25.70;10.20;;;;;;;30.78;38.26;98665.38;106011;1276;97881;-70
2022/08/28 10:35:45;;;;;;;21.80;8.40;;;;;;;30.46;38.47;98664.58;106092;1276;95272;-66
2022/08/28 10:38:38;;;;;;;22.30;8.10;;;;;;;30.24;38.55;98659.38;105883;1276;112033;-69
2022/08/28 10:41:20;;;;;;;21.10;8.10;;;;;;;30.19;38.49;98661.71;106075;1276;97254;-69
2022/08/28 10:43:56;;;;;;;19.90;8.30;;;;;;;30.20;38.66;98665.52;106061;1276;107736;-68
2022/08/28 10:46:33;;;;;;;19.20;7.60;;;;;;;30.26;38.64;98660.98;106022;1276;97985;-67
2022/08/28 10:49:25;;;;;;;19.40;7.30;;;;;;;30.24;38.34;98655.55;106087;1277;97975;-67
2022/08/28 10:52:05;;;;;;;24.50;7.40;;;;;;;30.12;38.30;98654.38;105977;1276;111511;-68
2022/08/28 10:54:53;;;;;;;21.10;7.70;;;;;;;30.13;38.25;98657.13;105926;1276;97693;-68
2022/08/28 10:57:50;;;;;;;19.60;7.50;;;;;;;30.10;38.24;98654.78;105882;1277;108296;-67
2022/08/28 11:00:27;;;;;;;22.90;7.00;;;;;;;30.16;38.50;98654.15;106022;1276;95307;-68
2022/08/28 11:03:09;;;;;;;18.50;7.10;;;;;;;30.30;38.49;98653.55;105822;1277;98069;-67
2022/08/28 11:06:12;;;;;;;20.90;8.50;;;;;;;30.43;38.49;98651.46;106041;1276;112021;-67
2022/08/28 11:08:50;;;;;;;18.20;7.50;;;;;;;30.56;38.47;98649.65;106078;1276;95672;-64
2022/08/28 11:11:38;;;;;;;18.30;7.70;;;;;;;30.67;38.42;98647.77;106098;1276;107773;-67
2022/08/28 11:14:27;;;;;;;22.50;7.10;;;;;;;30.74;38.34;98644.75;105986;1276;97973;-67
2022/08/28 11:17:30;;;;;;;21.70;6.60;;;;;;;30.73;38.29;98639.45;106036;1276;95188;-69
2022/08/28 11:20:08;;;;;;;21.40;6.60;;;;;;;30.78;38.04;98638.25;105821;1276;112095;-67
2022/08/28 11:23:06;;;;;;;21.60;6.40;;;;;;;30.62;37.71;98642.66;105920;1276;96433;-66
2022/08/28 11:25:40;;;;;;;16.20;6.10;;;;;;;30.44;37.69;98642.45;105966;1277;108461;-70
2022/08/28 11:28:25;;;;;;;22.40;7.20;;;;;;;30.45;37.66;98641.07;105935;1276;97985;-68
2022/08/28 11:31:04;;;;;;;14.90;6.30;;;;;;;30.54;37.69;98639.34;105934;1275;97788;-66
2022/08/28 11:33:51;;;;;;;13.00;6.50;;;;;;;30.68;37.64;98636.26;105967;1275;112801;-65
2022/08/28 11:36:20;;;;;;;16.50;6.70;;;;;;;30.85;37.72;98632.35;105980;1276;98270;-67
2022/08/28 11:38:50;;;;;;;17.20;6.50;;;;;;;30.97;37.62;98631.23;105991;1276;109397;-66
2022/08/28 11:41:27;;;;;;;17.00;5.30;;;;;;;31.07;37.54;98631.08;106017;1276;97993;-67
2022/08/28 11:43:58;;;;;;;14.60;6.10;;;;;;;31.06;37.30;98628.02;105822;1276;97847;-67
2022/08/28 11:46:36;;;;;;;15.30;5.60;;;;;;;31.08;37.35;98624.38;106014;1274;111248;-68
2022/08/28 11:49:33;;;;;;;17.30;5.90;;;;;;;31.11;37.04;98623.70;105993;1277;98412;-67